createdAt,value
2018-11-26T00:00:50.430Z,100.0
2018-11-26T00:02:50.461Z,100.0
2018-11-26T00:04:50.713Z,100.0
2018-11-26T00:06:49.858Z,100.0
2018-11-26T00:08:49.799Z,100.0
2018-11-26T00:10:49.837Z,100.0
2018-11-26T00:12:50.385Z,100.0
2018-11-26T00:14:50.373Z,100.0
2018-11-26T00:16:50.631Z,100.0
2018-11-26T00:18:50.520Z,100.0
2018-11-26T00:20:50.533Z,100.0
2018-11-26T00:22:50.526Z,99.8
2018-11-26T00:24:50.464Z,99.4
2018-11-26T00:26:50.621Z,99.3
2018-11-26T00:28:50.589Z,99.0
2018-11-26T00:30:50.525Z,98.3
2018-11-26T00:32:50.668Z,98.2
2018-11-26T00:34:49.919Z,97.7
2018-11-26T00:36:50.149Z,98.0
2018-11-26T00:38:50.124Z,98.7
2018-11-26T00:40:50.150Z,99.0
2018-11-26T00:42:50.129Z,98.0
2018-11-26T00:44:50.113Z,97.4
2018-11-26T00:46:50.236Z,97.9
2018-11-26T00:48:50.203Z,98.6
2018-11-26T00:50:50.170Z,98.3
2018-11-26T00:52:50.178Z,98.4
2018-11-26T00:54:50.180Z,98.0
2018-11-26T00:56:50.333Z,98.3
2018-11-26T00:58:50.276Z,97.9
2018-11-26T01:00:50.253Z,98.3
2018-11-26T01:02:50.218Z,97.8
2018-11-26T01:04:50.648Z,97.7
2018-11-26T01:06:49.912Z,97.7
2018-11-26T01:08:49.979Z,98.0
2018-11-26T01:10:50.160Z,97.3
2018-11-26T01:12:50.177Z,97.7
2018-11-26T01:14:50.105Z,97.8
2018-11-26T01:16:50.364Z,97.4
2018-11-26T01:18:50.405Z,97.8
2018-11-26T01:20:50.443Z,98.0
2018-11-26T01:22:50.347Z,97.9
2018-11-26T01:24:50.326Z,97.7
2018-11-26T01:26:50.591Z,97.1
2018-11-26T01:28:50.529Z,96.7
2018-11-26T01:30:50.561Z,96.7
2018-11-26T01:32:50.603Z,96.3
2018-11-26T01:34:49.986Z,96.2
2018-11-26T01:36:50.219Z,96.6
2018-11-26T01:38:50.218Z,96.9
2018-11-26T01:40:50.317Z,96.9
2018-11-26T01:42:50.607Z,96.2
2018-11-26T01:44:50.577Z,96.0
2018-11-26T01:46:49.838Z,95.8
2018-11-26T01:48:49.841Z,95.4
2018-11-26T01:50:49.909Z,95.1
2018-11-26T01:52:49.948Z,94.9
2018-11-26T01:54:49.944Z,95.2
2018-11-26T01:56:50.139Z,95.6
2018-11-26T01:58:50.114Z,94.5
2018-11-26T02:00:50.183Z,94.6
2018-11-26T02:02:50.165Z,94.7
2018-11-26T02:04:50.411Z,94.9
2018-11-26T02:06:50.602Z,94.7
2018-11-26T02:08:50.672Z,94.7
2018-11-26T02:10:50.673Z,94.1
2018-11-26T02:12:50.949Z,94.3
2018-11-26T02:14:49.984Z,94.1
2018-11-26T02:16:50.303Z,93.8
2018-11-26T02:18:50.337Z,93.8
2018-11-26T02:20:50.448Z,94.2
2018-11-26T02:22:50.526Z,94.1
2018-11-26T02:24:50.633Z,94.3
2018-11-26T02:26:49.824Z,94.3
2018-11-26T02:28:49.932Z,94.0
2018-11-26T02:30:50.067Z,94.5
2018-11-26T02:32:50.122Z,94.3
2018-11-26T02:34:50.647Z,94.4
2018-11-26T02:36:49.893Z,94.8
2018-11-26T02:38:49.950Z,94.6
2018-11-26T02:40:49.867Z,95.1
2018-11-26T02:42:49.971Z,94.7
2018-11-26T02:44:50.055Z,94.9
2018-11-26T02:46:50.268Z,94.7
2018-11-26T02:48:50.276Z,94.6
2018-11-26T02:50:50.285Z,94.1
2018-11-26T02:52:50.279Z,94.7
2018-11-26T02:54:50.262Z,94.5
2018-11-26T02:56:50.442Z,94.8
2018-11-26T02:58:50.492Z,95.4
2018-11-26T03:00:50.494Z,94.9
2018-11-26T03:02:50.481Z,94.6
2018-11-26T03:04:50.013Z,95.0
2018-11-26T03:06:50.103Z,94.9
2018-11-26T03:08:50.116Z,94.8
2018-11-26T03:10:50.070Z,94.8
2018-11-26T03:12:50.170Z,94.0
2018-11-26T03:14:50.090Z,93.9
2018-11-26T03:16:50.297Z,94.7
2018-11-26T03:18:50.264Z,94.4
2018-11-26T03:20:50.266Z,94.8
2018-11-26T03:22:50.274Z,94.8
2018-11-26T03:24:50.289Z,94.8
2018-11-26T03:26:50.437Z,94.9
2018-11-26T03:28:50.408Z,95.5
2018-11-26T03:30:50.403Z,95.3
2018-11-26T03:32:50.497Z,95.1
2018-11-26T03:34:50.769Z,94.8
2018-11-26T03:36:50.016Z,94.9
2018-11-26T03:38:49.996Z,95.0
2018-11-26T03:40:49.950Z,94.9
2018-11-26T03:42:49.989Z,95.1
2018-11-26T03:44:49.981Z,95.1
2018-11-26T03:46:50.248Z,95.3
2018-11-26T03:48:50.245Z,95.5
2018-11-26T03:50:50.284Z,95.6
2018-11-26T03:52:50.257Z,95.6
2018-11-26T03:54:50.355Z,95.7
2018-11-26T03:56:50.441Z,96.1
2018-11-26T03:58:50.419Z,96.1
2018-11-26T04:00:50.473Z,96.3
2018-11-26T04:02:50.454Z,96.5
2018-11-26T04:04:50.784Z,96.5
2018-11-26T04:06:49.963Z,96.4
2018-11-26T04:08:50.082Z,96.4
2018-11-26T04:10:50.056Z,96.8
2018-11-26T04:12:50.054Z,96.4
2018-11-26T04:14:50.037Z,96.4
2018-11-26T04:16:50.122Z,96.8
2018-11-26T04:18:50.109Z,96.7
2018-11-26T04:20:50.146Z,96.4
2018-11-26T04:22:50.187Z,96.6
2018-11-26T04:24:50.158Z,96.6
2018-11-26T04:26:50.451Z,96.8
2018-11-26T04:28:50.422Z,97.3
2018-11-26T04:30:50.351Z,96.6
2018-11-26T04:32:50.360Z,96.4
2018-11-26T04:34:49.801Z,96.1
2018-11-26T04:36:49.978Z,95.4
2018-11-26T04:38:49.978Z,95.3
2018-11-26T04:40:49.956Z,95.9
2018-11-26T04:42:50.051Z,95.7
2018-11-26T04:44:50.060Z,95.1
2018-11-26T04:46:50.217Z,95.2
2018-11-26T04:48:50.228Z,95.4
2018-11-26T04:50:50.221Z,95.6
2018-11-26T04:52:50.250Z,94.8
2018-11-26T04:54:50.286Z,95.2
2018-11-26T04:56:50.537Z,95.1
2018-11-26T04:58:50.493Z,95.1
2018-11-26T05:00:50.448Z,95.6
2018-11-26T05:02:50.507Z,95.1
2018-11-26T05:04:50.724Z,94.8
2018-11-26T05:06:49.918Z,94.8
2018-11-26T05:08:49.869Z,94.2
2018-11-26T05:10:49.855Z,94.1
2018-11-26T05:12:50.052Z,93.9
2018-11-26T05:14:50.056Z,94.2
2018-11-26T05:16:50.210Z,94.7
2018-11-26T05:18:50.305Z,94.3
2018-11-26T05:20:50.245Z,94.8
2018-11-26T05:22:50.182Z,94.4
2018-11-26T05:24:50.103Z,94.9
2018-11-26T05:26:49.983Z,94.6
2018-11-26T05:28:50.071Z,94.9
2018-11-26T05:30:50.072Z,95.1
2018-11-26T05:32:50.083Z,95.0
2018-11-26T05:34:50.404Z,95.3
2018-11-26T05:36:50.486Z,95.2
2018-11-26T05:38:50.502Z,95.5
2018-11-26T05:40:50.440Z,96.3
2018-11-26T05:42:50.500Z,96.0
2018-11-26T05:44:50.481Z,95.4
2018-11-26T05:46:50.672Z,95.0
2018-11-26T05:48:50.714Z,94.6
2018-11-26T05:50:50.681Z,94.7
2018-11-26T05:52:50.658Z,95.3
2018-11-26T05:54:50.759Z,94.4
2018-11-26T05:56:50.081Z,94.7
2018-11-26T05:58:50.062Z,94.4
2018-11-26T06:00:50.027Z,94.3
2018-11-26T06:02:50.089Z,94.7
2018-11-26T06:04:50.385Z,94.5
2018-11-26T06:06:50.600Z,94.5
2018-11-26T06:08:50.599Z,95.0
2018-11-26T06:10:50.576Z,95.0
2018-11-26T06:12:50.583Z,94.8
2018-11-26T06:14:50.628Z,94.5
2018-11-26T06:16:54.205Z,94.5
2018-11-26T06:18:50.248Z,94.4
2018-11-26T06:20:50.276Z,95.1
2018-11-26T06:22:50.283Z,95.1
2018-11-26T06:24:50.305Z,94.6
2018-11-26T06:26:50.457Z,95.2
2018-11-26T06:28:50.390Z,95.0
2018-11-26T06:30:50.459Z,95.0
2018-11-26T06:32:50.476Z,95.1
2018-11-26T06:34:50.669Z,95.5
2018-11-26T06:36:50.442Z,95.8
2018-11-26T06:38:50.379Z,95.4
2018-11-26T06:40:50.358Z,95.5
2018-11-26T06:42:50.358Z,95.9
2018-11-26T06:44:50.301Z,95.7
2018-11-26T06:46:50.484Z,96.1
2018-11-26T06:48:50.533Z,96.1
2018-11-26T06:50:50.489Z,95.4
2018-11-26T06:52:50.579Z,95.5
2018-11-26T06:54:50.632Z,95.8
2018-11-26T06:56:50.773Z,95.9
2018-11-26T06:58:49.817Z,95.7
2018-11-26T07:00:49.810Z,95.3
2018-11-26T07:02:49.846Z,95.7
2018-11-26T07:04:50.376Z,94.5
2018-11-26T07:06:50.641Z,94.4
2018-11-26T07:08:50.620Z,95.1
2018-11-26T07:10:50.637Z,95.2
2018-11-26T07:12:50.600Z,94.8
2018-11-26T07:14:50.550Z,93.9
2018-11-26T07:16:50.778Z,94.0
2018-11-26T07:18:49.808Z,93.5
2018-11-26T07:20:50.026Z,93.7
2018-11-26T07:22:50.091Z,93.2
2018-11-26T07:24:50.101Z,93.1
2018-11-26T07:26:50.267Z,92.4
2018-11-26T07:28:50.178Z,93.0
2018-11-26T07:30:50.125Z,92.8
2018-11-26T07:32:50.090Z,93.7
2018-11-26T07:34:50.363Z,93.3
2018-11-26T07:36:50.643Z,92.6
2018-11-26T07:38:50.590Z,92.6
2018-11-26T07:40:50.612Z,91.6
2018-11-26T07:42:50.557Z,91.7
2018-11-26T07:44:50.527Z,93.3
2018-11-26T07:46:50.795Z,92.6
2018-11-26T07:48:49.781Z,92.1
2018-11-26T07:50:49.970Z,92.5
2018-11-26T07:52:50.118Z,91.2
2018-11-26T07:54:50.102Z,90.6
2018-11-26T07:56:50.312Z,90.2
2018-11-26T07:58:50.324Z,90.2
2018-11-26T08:00:50.348Z,90.2
2018-11-26T08:02:50.338Z,91.1
2018-11-26T08:04:50.586Z,90.5
2018-11-26T08:06:49.887Z,90.5
2018-11-26T08:08:49.850Z,90.3
2018-11-26T08:10:49.860Z,90.3
2018-11-26T08:12:49.917Z,92.0
2018-11-26T08:14:50.063Z,91.5
2018-11-26T08:16:50.284Z,92.2
2018-11-26T08:18:50.243Z,91.5
2018-11-26T08:20:50.250Z,91.6
2018-11-26T08:22:50.352Z,92.5
2018-11-26T08:24:50.416Z,90.9
2018-11-26T08:26:50.573Z,91.4
2018-11-26T08:28:50.588Z,91.6
2018-11-26T08:30:50.648Z,91.5
2018-11-26T08:32:50.589Z,91.2
2018-11-26T08:34:50.080Z,91.3
2018-11-26T08:36:50.350Z,91.6
2018-11-26T08:38:50.365Z,91.4
2018-11-26T08:40:50.076Z,91.4
2018-11-26T08:42:50.102Z,90.7
2018-11-26T08:44:50.128Z,90.4
2018-11-26T08:46:50.638Z,90.8
2018-11-26T08:48:50.231Z,89.7
2018-11-26T08:50:50.193Z,90.3
2018-11-26T08:52:50.216Z,90.3
2018-11-26T08:54:50.272Z,90.8
2018-11-26T08:56:50.355Z,89.7
2018-11-26T08:58:50.326Z,89.4
2018-11-26T09:00:50.268Z,89.3
2018-11-26T09:02:50.419Z,88.5
2018-11-26T09:04:50.595Z,87.6
2018-11-26T09:06:49.783Z,87.0
2018-11-26T09:08:49.801Z,87.3
2018-11-26T09:10:50.784Z,85.0
2018-11-26T09:12:49.797Z,84.9
2018-11-26T09:14:49.877Z,86.2
2018-11-26T09:16:50.030Z,85.3
2018-11-26T09:18:50.019Z,83.7
2018-11-26T09:20:50.027Z,82.9
2018-11-26T09:22:50.011Z,82.3
2018-11-26T09:24:50.000Z,82.2
2018-11-26T09:26:50.128Z,82.3
2018-11-26T09:28:50.159Z,81.6
2018-11-26T09:30:50.107Z,81.5
2018-11-26T09:32:50.088Z,82.1
2018-11-26T09:34:50.429Z,81.7
2018-11-26T09:36:50.604Z,81.3
2018-11-26T09:38:50.674Z,80.5
2018-11-26T09:40:50.509Z,81.2
2018-11-26T09:42:50.425Z,80.9
2018-11-26T09:44:50.508Z,82.5
2018-11-26T09:46:49.877Z,82.2
2018-11-26T09:48:49.809Z,82.2
2018-11-26T09:50:49.901Z,81.5
2018-11-26T09:52:49.883Z,81.5
2018-11-26T09:54:49.910Z,81.7
2018-11-26T09:56:50.199Z,83.2
2018-11-26T09:58:50.232Z,81.3
2018-11-26T10:00:50.248Z,82.1
2018-11-26T10:02:50.169Z,81.7
2018-11-26T10:04:50.409Z,82.0
2018-11-26T10:06:50.618Z,81.0
2018-11-26T10:08:50.650Z,81.7
2018-11-26T10:10:50.725Z,80.7
2018-11-26T10:12:50.733Z,80.8
2018-11-26T10:14:50.732Z,80.2
2018-11-26T10:16:49.998Z,81.2
2018-11-26T10:18:49.961Z,82.3
2018-11-26T10:20:49.932Z,82.9
2018-11-26T10:22:49.996Z,81.9
2018-11-26T10:24:50.626Z,82.3
2018-11-26T10:26:49.803Z,81.9
2018-11-26T10:28:49.856Z,80.7
2018-11-26T10:30:49.865Z,80.9
2018-11-26T10:32:49.904Z,81.2
2018-11-26T10:34:50.322Z,80.5
2018-11-26T10:36:50.618Z,79.2
2018-11-26T10:38:50.634Z,78.9
2018-11-26T10:40:50.552Z,80.0
2018-11-26T10:42:50.648Z,79.0
2018-11-26T10:44:50.607Z,79.9
2018-11-26T10:46:49.921Z,78.4
2018-11-26T10:48:49.931Z,80.0
2018-11-26T10:50:49.962Z,79.2
2018-11-26T10:52:50.098Z,77.8
2018-11-26T10:54:50.075Z,77.8
2018-11-26T10:56:50.241Z,78.0
2018-11-26T10:58:50.262Z,78.4
2018-11-26T11:00:50.258Z,77.2
2018-11-26T11:02:50.296Z,77.1
2018-11-26T11:04:50.751Z,77.1
2018-11-26T11:06:56.225Z,76.7
2018-11-26T11:08:50.275Z,77.4
2018-11-26T11:10:50.250Z,76.7
2018-11-26T11:12:50.155Z,77.1
2018-11-26T11:14:50.149Z,75.5
2018-11-26T11:16:50.446Z,76.2
2018-11-26T11:18:50.446Z,76.9
2018-11-26T11:20:50.448Z,76.4
2018-11-26T11:22:50.412Z,75.6
2018-11-26T11:24:50.367Z,75.7
2018-11-26T11:26:50.525Z,75.7
2018-11-26T11:28:50.545Z,75.8
2018-11-26T11:30:50.625Z,75.8
2018-11-26T11:32:50.618Z,75.5
2018-11-26T11:34:49.799Z,74.4
2018-11-26T11:36:50.258Z,73.6
2018-11-26T11:38:50.219Z,74.7
2018-11-26T11:40:50.204Z,74.2
2018-11-26T11:42:50.164Z,74.6
2018-11-26T11:44:50.075Z,74.4
2018-11-26T11:46:50.215Z,75.1
2018-11-26T11:48:50.264Z,75.4
2018-11-26T11:50:50.332Z,75.4
2018-11-26T11:52:50.434Z,75.0
2018-11-26T11:54:50.462Z,75.2
2018-11-26T11:56:50.666Z,75.6
2018-11-26T11:58:50.672Z,75.0
2018-11-26T12:00:50.605Z,74.6
2018-11-26T12:02:50.546Z,74.7
2018-11-26T12:04:50.015Z,74.0
2018-11-26T12:06:50.101Z,74.2
2018-11-26T12:08:50.026Z,74.9
2018-11-26T12:10:49.968Z,74.8
2018-11-26T12:12:50.097Z,75.4
2018-11-26T12:14:50.071Z,75.4
2018-11-26T12:16:50.365Z,74.6
2018-11-26T12:18:50.310Z,74.5
2018-11-26T12:20:50.294Z,75.6
2018-11-26T12:22:50.312Z,75.4
2018-11-26T12:24:50.287Z,75.2
2018-11-26T12:26:50.452Z,74.7
2018-11-26T12:28:50.451Z,74.7
2018-11-26T12:30:50.441Z,74.7
2018-11-26T12:32:50.474Z,75.0
2018-11-26T12:34:50.639Z,75.3
2018-11-26T12:36:50.682Z,74.9
2018-11-26T12:38:50.638Z,74.9
2018-11-26T12:40:50.584Z,74.6
2018-11-26T12:42:50.599Z,74.6
2018-11-26T12:44:50.638Z,75.0
2018-11-26T12:46:49.802Z,75.0
2018-11-26T12:48:49.821Z,75.0
2018-11-26T12:50:49.862Z,75.0
2018-11-26T12:52:49.904Z,74.9
2018-11-26T12:54:49.941Z,74.8
2018-11-26T12:56:50.231Z,74.1
2018-11-26T12:58:50.221Z,74.6
2018-11-26T13:00:50.246Z,75.6
2018-11-26T13:02:50.150Z,75.6
2018-11-26T13:04:50.425Z,75.0
2018-11-26T13:06:50.622Z,75.4
2018-11-26T13:08:50.557Z,74.7
2018-11-26T13:10:50.579Z,74.7
2018-11-26T13:12:50.563Z,75.4
2018-11-26T13:14:50.551Z,73.5
2018-11-26T13:16:50.779Z,74.7
2018-11-26T13:18:50.747Z,73.6
2018-11-26T13:20:50.764Z,74.3
2018-11-26T13:22:50.642Z,74.6
2018-11-26T13:24:50.563Z,74.6
2018-11-26T13:26:49.791Z,74.9
2018-11-26T13:28:50.751Z,74.8
2018-11-26T13:30:50.747Z,74.7
2018-11-26T13:32:50.748Z,74.6
2018-11-26T13:34:49.961Z,74.6
2018-11-26T13:36:50.197Z,74.5
2018-11-26T13:38:50.091Z,74.5
2018-11-26T13:40:50.182Z,75.6
2018-11-26T13:42:50.078Z,75.2
2018-11-26T13:44:50.034Z,75.6
2018-11-26T13:46:50.097Z,74.4
2018-11-26T13:48:50.003Z,75.1
2018-11-26T13:50:50.124Z,75.9
2018-11-26T13:52:50.082Z,75.9
2018-11-26T13:54:50.007Z,76.8
2018-11-26T13:56:50.188Z,75.9
2018-11-26T13:58:50.122Z,75.6
2018-11-26T14:00:50.040Z,75.7
2018-11-26T14:02:50.031Z,77.0
2018-11-26T14:04:50.366Z,76.4
2018-11-26T14:06:50.490Z,76.1
2018-11-26T14:08:50.427Z,76.1
2018-11-26T14:10:50.408Z,77.3
2018-11-26T14:12:50.276Z,75.9
2018-11-26T14:14:52.135Z,76.0
2018-11-26T14:16:50.309Z,77.5
2018-11-26T14:18:50.206Z,77.1
2018-11-26T14:20:50.107Z,76.6
2018-11-26T14:22:50.108Z,77.1
2018-11-26T14:24:50.060Z,78.9
2018-11-26T14:26:50.344Z,80.6
2018-11-26T14:28:50.321Z,79.7
2018-11-26T14:30:50.311Z,81.2
2018-11-26T14:32:50.293Z,81.4
2018-11-26T14:34:50.574Z,81.4
2018-11-26T14:36:50.623Z,82.9
2018-11-26T14:38:50.537Z,83.3
2018-11-26T14:40:50.495Z,83.3
2018-11-26T14:42:50.502Z,82.2
2018-11-26T14:44:50.570Z,83.0
2018-11-26T14:46:50.683Z,83.8
2018-11-26T14:48:50.631Z,84.1
2018-11-26T14:50:50.700Z,82.6
2018-11-26T14:52:50.759Z,83.8
2018-11-26T14:54:49.782Z,84.3
2018-11-26T14:56:49.979Z,84.1
2018-11-26T14:58:49.954Z,84.5
2018-11-26T15:00:49.996Z,84.5
2018-11-26T15:02:49.977Z,85.5
2018-11-26T15:04:50.294Z,85.9
2018-11-26T15:06:50.510Z,85.8
2018-11-26T15:08:50.426Z,86.1
2018-11-26T15:10:50.356Z,86.1
2018-11-26T15:12:50.351Z,86.5
2018-11-26T15:14:50.269Z,86.3
2018-11-26T15:16:50.396Z,86.6
2018-11-26T15:18:50.455Z,86.4
2018-11-26T15:20:50.372Z,85.7
2018-11-26T15:22:50.390Z,86.7
2018-11-26T15:24:50.324Z,85.5
2018-11-26T15:26:54.161Z,85.7
2018-11-26T15:28:50.136Z,86.6
2018-11-26T15:30:50.045Z,86.4
2018-11-26T15:32:50.020Z,86.1
2018-11-26T15:34:50.326Z,87.1
2018-11-26T15:36:50.453Z,86.8
2018-11-26T15:38:50.446Z,86.8
2018-11-26T15:40:50.627Z,86.4
2018-11-26T15:42:50.710Z,87.6
2018-11-26T15:44:50.779Z,86.5
2018-11-26T15:46:49.928Z,87.5
2018-11-26T15:48:49.975Z,87.5
2018-11-26T15:50:50.046Z,86.5
2018-11-26T15:52:49.995Z,86.5
2018-11-26T15:54:49.977Z,86.7
2018-11-26T15:56:50.088Z,86.9
2018-11-26T15:58:50.088Z,86.7
2018-11-26T16:00:50.050Z,87.5
2018-11-26T16:02:50.077Z,86.8
2018-11-26T16:04:50.277Z,87.1
2018-11-26T16:06:50.394Z,87.5
2018-11-26T16:08:50.372Z,87.9
2018-11-26T16:10:50.296Z,86.8
2018-11-26T16:12:50.282Z,87.0
2018-11-26T16:14:50.253Z,87.0
2018-11-26T16:16:50.424Z,87.8
2018-11-26T16:18:50.464Z,87.3
2018-11-26T16:20:50.448Z,87.8
2018-11-26T16:22:50.483Z,87.3
2018-11-26T16:24:50.592Z,87.3
2018-11-26T16:26:49.911Z,87.4
2018-11-26T16:28:49.917Z,87.6
2018-11-26T16:30:49.930Z,87.9
2018-11-26T16:32:49.989Z,87.8
2018-11-26T16:34:50.322Z,87.9
2018-11-26T16:36:50.457Z,87.8
2018-11-26T16:38:50.435Z,87.4
2018-11-26T16:40:50.468Z,88.1
2018-11-26T16:42:50.452Z,87.7
2018-11-26T16:44:50.518Z,88.3
2018-11-26T16:46:50.665Z,88.6
2018-11-26T16:48:50.592Z,88.9
2018-11-26T16:50:50.665Z,88.0
2018-11-26T16:52:52.032Z,88.2
2018-11-26T16:54:49.994Z,89.1
2018-11-26T16:56:50.171Z,89.5
2018-11-26T16:58:50.103Z,88.2
2018-11-26T17:00:50.057Z,88.2
2018-11-26T17:02:50.015Z,87.9
2018-11-26T17:04:50.233Z,88.1
2018-11-26T17:06:50.409Z,88.3
2018-11-26T17:08:50.405Z,88.4
2018-11-26T17:10:50.444Z,88.7
2018-11-26T17:12:50.408Z,89.0
2018-11-26T17:14:50.423Z,88.4
2018-11-26T17:16:50.578Z,89.2
2018-11-26T17:18:50.499Z,89.3
2018-11-26T17:20:50.520Z,89.7
2018-11-26T17:22:50.459Z,88.8
2018-11-26T17:24:50.373Z,89.3
2018-11-26T17:26:50.570Z,89.3
2018-11-26T17:28:50.502Z,89.2
2018-11-26T17:30:50.472Z,88.9
2018-11-26T17:32:50.444Z,89.7
2018-11-26T17:34:50.634Z,90.2
2018-11-26T17:36:49.799Z,90.4
2018-11-26T17:38:49.916Z,89.3
2018-11-26T17:40:49.912Z,89.6
2018-11-26T17:42:49.946Z,89.8
2018-11-26T17:44:49.940Z,89.5
2018-11-26T17:46:50.136Z,89.6
2018-11-26T17:48:50.106Z,89.0
2018-11-26T17:50:50.126Z,89.5
2018-11-26T17:52:50.132Z,89.5
2018-11-26T17:54:50.123Z,88.8
2018-11-26T17:56:50.201Z,88.5
2018-11-26T17:58:50.198Z,89.1
2018-11-26T18:00:50.117Z,89.1
2018-11-26T18:02:50.125Z,89.7
2018-11-26T18:04:50.478Z,89.8
2018-11-26T18:06:50.642Z,89.5
2018-11-26T18:08:50.670Z,89.3
2018-11-26T18:10:50.625Z,89.4
2018-11-26T18:12:50.619Z,89.5
2018-11-26T18:14:50.628Z,88.3
2018-11-26T18:16:49.799Z,89.4
2018-11-26T18:18:49.784Z,88.6
2018-11-26T18:20:49.813Z,89.4
2018-11-26T18:22:50.748Z,89.5
2018-11-26T18:24:49.865Z,88.9
2018-11-26T18:26:50.128Z,88.6
2018-11-26T18:28:50.150Z,88.4
2018-11-26T18:30:50.098Z,89.4
2018-11-26T18:32:50.155Z,89.6
2018-11-26T18:34:50.449Z,89.9
2018-11-26T18:36:50.563Z,89.4
2018-11-26T18:38:50.587Z,90.0
2018-11-26T18:40:50.615Z,89.2
2018-11-26T18:42:50.612Z,90.0
2018-11-26T18:44:50.684Z,89.6
2018-11-26T18:46:49.932Z,89.9
2018-11-26T18:48:50.065Z,89.3
2018-11-26T18:50:50.100Z,89.0
2018-11-26T18:52:50.030Z,89.2
2018-11-26T18:54:49.999Z,89.8
2018-11-26T18:56:50.228Z,90.0
2018-11-26T18:58:50.202Z,90.2
2018-11-26T19:00:50.233Z,89.3
2018-11-26T19:02:50.692Z,89.6
2018-11-26T19:04:50.086Z,89.4
2018-11-26T19:06:50.271Z,89.9
2018-11-26T19:08:50.339Z,90.0
2018-11-26T19:10:50.316Z,90.6
2018-11-26T19:12:50.410Z,90.1
2018-11-26T19:14:50.426Z,89.8
2018-11-26T19:16:50.527Z,90.8
2018-11-26T19:18:50.531Z,90.6
2018-11-26T19:20:50.515Z,90.7
2018-11-26T19:22:50.505Z,91.2
2018-11-26T19:24:50.493Z,90.9
2018-11-26T19:26:50.896Z,90.9
2018-11-26T19:28:49.960Z,90.1
2018-11-26T19:30:50.051Z,90.5
2018-11-26T19:32:50.047Z,90.2
2018-11-26T19:34:50.307Z,90.5
2018-11-26T19:36:50.547Z,90.3
2018-11-26T19:38:50.556Z,91.4
2018-11-26T19:40:50.523Z,91.3
2018-11-26T19:42:51.016Z,90.2
2018-11-26T19:44:50.273Z,90.7
2018-11-26T19:46:50.637Z,90.9
2018-11-26T19:48:50.612Z,91.8
2018-11-26T19:50:50.877Z,91.5
2018-11-26T19:52:50.044Z,91.4
2018-11-26T19:54:50.049Z,91.5
2018-11-26T19:56:50.201Z,90.6
2018-11-26T19:58:50.133Z,90.6
2018-11-26T20:00:50.172Z,91.5
2018-11-26T20:02:50.143Z,90.6
2018-11-26T20:04:50.382Z,90.9
2018-11-26T20:06:50.573Z,90.7
2018-11-26T20:08:50.605Z,90.5
2018-11-26T20:10:50.518Z,91.1
2018-11-26T20:12:50.503Z,91.6
2018-11-26T20:14:50.501Z,91.0
2018-11-26T20:16:50.608Z,91.3
2018-11-26T20:18:50.685Z,91.9
2018-11-26T20:20:50.669Z,91.1
2018-11-26T20:22:50.705Z,91.8
2018-11-26T20:24:50.717Z,91.9
2018-11-26T20:26:49.951Z,91.9
2018-11-26T20:28:50.027Z,90.8
2018-11-26T20:30:50.035Z,90.8
2018-11-26T20:32:49.950Z,91.3
2018-11-26T20:34:50.410Z,91.6
2018-11-26T20:36:50.634Z,91.1
2018-11-26T20:38:50.666Z,91.1
2018-11-26T20:40:50.703Z,91.0
2018-11-26T20:42:49.857Z,91.5
2018-11-26T20:44:49.964Z,91.2
2018-11-26T20:46:50.266Z,91.5
2018-11-26T20:48:50.260Z,91.5
2018-11-26T20:50:50.254Z,91.6
2018-11-26T20:52:50.235Z,91.6
2018-11-26T20:54:50.270Z,91.6
2018-11-26T20:56:50.414Z,91.1
2018-11-26T20:58:50.406Z,91.6
2018-11-26T21:00:50.347Z,91.7
2018-11-26T21:02:50.343Z,91.1
2018-11-26T21:04:50.642Z,91.5
2018-11-26T21:06:49.855Z,91.6
2018-11-26T21:08:49.896Z,91.1
2018-11-26T21:10:49.922Z,91.6
2018-11-26T21:12:49.924Z,91.5
2018-11-26T21:14:49.964Z,91.2
2018-11-26T21:16:50.262Z,91.5
2018-11-26T21:18:50.244Z,92.1
2018-11-26T21:20:50.254Z,90.9
2018-11-26T21:22:50.238Z,91.0
2018-11-26T21:24:50.292Z,90.5
2018-11-26T21:26:50.408Z,91.1
2018-11-26T21:28:50.456Z,91.6
2018-11-26T21:30:52.682Z,91.2
2018-11-26T21:32:50.749Z,91.4
2018-11-26T21:34:50.077Z,90.7
2018-11-26T21:36:50.362Z,91.4
2018-11-26T21:38:50.370Z,90.5
2018-11-26T21:40:50.425Z,90.5
2018-11-26T21:42:50.452Z,90.2
2018-11-26T21:44:50.376Z,90.3
2018-11-26T21:46:53.844Z,90.3
2018-11-26T21:48:49.890Z,91.2
2018-11-26T21:50:49.877Z,91.3
2018-11-26T21:52:49.900Z,91.2
2018-11-26T21:54:49.898Z,91.2
2018-11-26T21:56:50.140Z,92.0
2018-11-26T21:58:50.091Z,90.8
2018-11-26T22:00:50.079Z,90.5
2018-11-26T22:02:50.064Z,91.8
2018-11-26T22:04:50.363Z,91.4
2018-11-26T22:06:50.488Z,91.4
2018-11-26T22:08:50.468Z,91.1
2018-11-26T22:10:50.390Z,90.3
2018-11-26T22:12:50.531Z,90.3
2018-11-26T22:14:50.481Z,90.2
2018-11-26T22:16:50.651Z,90.9
2018-11-26T22:18:51.537Z,90.9
2018-11-26T22:20:50.457Z,89.6
2018-11-26T22:22:50.521Z,89.7
2018-11-26T22:24:50.566Z,90.4
2018-11-26T22:26:49.754Z,89.7
2018-11-26T22:28:50.743Z,89.3
2018-11-26T22:30:50.770Z,89.1
2018-11-26T22:32:49.813Z,89.0
2018-11-26T22:34:50.196Z,89.0
2018-11-26T22:36:50.400Z,89.3
2018-11-26T22:38:50.409Z,89.5
2018-11-26T22:40:50.384Z,89.4
2018-11-26T22:42:50.348Z,88.9
2018-11-26T22:44:50.359Z,88.4
2018-11-26T22:46:50.485Z,89.4
2018-11-26T22:48:50.527Z,88.7
2018-11-26T22:50:50.536Z,88.4
2018-11-26T22:52:50.550Z,88.4
2018-11-26T22:54:50.589Z,87.7
2018-11-26T22:56:50.723Z,88.3
2018-11-26T22:58:50.672Z,87.9
2018-11-26T23:00:50.795Z,87.7
2018-11-26T23:02:50.753Z,88.9
2018-11-26T23:04:50.014Z,87.6
2018-11-26T23:06:50.121Z,87.3
2018-11-26T23:08:50.094Z,87.2
2018-11-26T23:10:49.987Z,87.1
2018-11-26T23:12:49.949Z,88.1
2018-11-26T23:14:49.936Z,87.3
2018-11-26T23:16:50.238Z,88.3
2018-11-26T23:18:50.231Z,87.6
2018-11-26T23:20:50.145Z,88.0
2018-11-26T23:22:50.096Z,87.5
2018-11-26T23:24:50.029Z,87.0
2018-11-26T23:26:50.208Z,87.6
2018-11-26T23:28:50.156Z,87.7
2018-11-26T23:30:50.081Z,87.4
2018-11-26T23:32:50.077Z,88.4
2018-11-26T23:34:50.412Z,87.2
2018-11-26T23:36:50.566Z,87.2
2018-11-26T23:38:50.600Z,87.2
2018-11-26T23:40:50.627Z,87.5
2018-11-26T23:42:50.599Z,87.7
2018-11-26T23:44:50.592Z,87.6
2018-11-26T23:46:50.638Z,87.5
2018-11-26T23:48:50.659Z,88.6
2018-11-26T23:50:50.745Z,88.6
2018-11-26T23:52:49.838Z,87.9
2018-11-26T23:54:49.997Z,88.0
2018-11-26T23:56:50.123Z,87.9
2018-11-26T23:58:50.152Z,88.3
